sensor_id;sensor_type;location;lat;lon;timestamp;P1;durP1;ratioP1;P2;durP2;ratioP2
77226;SDS011;66234;47.642;19.144;2024-02-14T00:01:52;7.68;;;3.45;;
77226;SDS011;66234;47.642;19.144;2024-02-14T00:04:55;7.68;;;4.30;;
77226;SDS011;66234;47.642;19.144;2024-02-14T00:07:57;10.73;;;4.10;;
77226;SDS011;66234;47.642;19.144;2024-02-14T00:11:00;7.70;;;4.07;;
77226;SDS011;66234;47.642;19.144;2024-02-14T00:14:03;13.07;;;4.47;;
77226;SDS011;66234;47.642;19.144;2024-02-14T00:17:06;9.93;;;4.45;;
77226;SDS011;66234;47.642;19.144;2024-02-14T00:20:09;8.77;;;4.50;;
77226;SDS011;66234;47.642;19.144;2024-02-14T00:23:14;7.13;;;3.83;;
77226;SDS011;66234;47.642;19.144;2024-02-14T00:26:17;8.65;;;4.53;;
77226;SDS011;66234;47.642;19.144;2024-02-14T00:29:19;8.02;;;4.32;;
77226;SDS011;66234;47.642;19.144;2024-02-14T00:32:23;13.50;;;4.65;;
77226;SDS011;66234;47.642;19.144;2024-02-14T00:35:26;8.30;;;4.00;;
77226;SDS011;66234;47.642;19.144;2024-02-14T00:38:28;9.82;;;4.63;;
77226;SDS011;66234;47.642;19.144;2024-02-14T00:41:31;7.23;;;4.07;;
77226;SDS011;66234;47.642;19.144;2024-02-14T00:44:34;8.38;;;4.60;;
77226;SDS011;66234;47.642;19.144;2024-02-14T00:47:36;9.55;;;4.80;;
77226;SDS011;66234;47.642;19.144;2024-02-14T00:50:39;10.53;;;4.73;;
77226;SDS011;66234;47.642;19.144;2024-02-14T00:53:42;9.85;;;4.65;;
77226;SDS011;66234;47.642;19.144;2024-02-14T00:56:44;9.48;;;4.65;;
77226;SDS011;66234;47.642;19.144;2024-02-14T00:59:47;9.15;;;4.72;;
77226;SDS011;66234;47.642;19.144;2024-02-14T01:02:50;6.82;;;4.50;;
77226;SDS011;66234;47.642;19.144;2024-02-14T01:05:52;9.32;;;4.63;;
77226;SDS011;66234;47.642;19.144;2024-02-14T01:08:55;8.90;;;4.40;;
77226;SDS011;66234;47.642;19.144;2024-02-14T01:11:58;5.33;;;3.80;;
77226;SDS011;66234;47.642;19.144;2024-02-14T01:15:01;12.25;;;4.97;;
77226;SDS011;66234;47.642;19.144;2024-02-14T01:18:04;8.73;;;4.30;;
77226;SDS011;66234;47.642;19.144;2024-02-14T01:21:07;9.50;;;4.47;;
77226;SDS011;66234;47.642;19.144;2024-02-14T01:24:09;8.20;;;4.78;;
77226;SDS011;66234;47.642;19.144;2024-02-14T01:27:12;7.10;;;3.97;;
77226;SDS011;66234;47.642;19.144;2024-02-14T01:30:15;9.38;;;4.47;;
77226;SDS011;66234;47.642;19.144;2024-02-14T01:33:19;5.93;;;4.18;;
77226;SDS011;66234;47.642;19.144;2024-02-14T01:36:21;9.02;;;4.55;;
77226;SDS011;66234;47.642;19.144;2024-02-14T01:39:24;7.50;;;4.82;;
77226;SDS011;66234;47.642;19.144;2024-02-14T01:42:27;7.67;;;4.20;;
77226;SDS011;66234;47.642;19.144;2024-02-14T01:45:30;8.57;;;4.35;;
77226;SDS011;66234;47.642;19.144;2024-02-14T01:48:35;6.28;;;3.65;;
77226;SDS011;66234;47.642;19.144;2024-02-14T01:51:39;7.53;;;4.40;;
77226;SDS011;66234;47.642;19.144;2024-02-14T01:54:44;6.97;;;3.90;;
77226;SDS011;66234;47.642;19.144;2024-02-14T01:57:47;6.30;;;4.32;;
77226;SDS011;66234;47.642;19.144;2024-02-14T02:00:51;8.23;;;4.50;;
77226;SDS011;66234;47.642;19.144;2024-02-14T02:03:59;6.32;;;3.67;;
77226;SDS011;66234;47.642;19.144;2024-02-14T02:07:02;8.95;;;4.10;;
77226;SDS011;66234;47.642;19.144;2024-02-14T02:10:06;7.50;;;4.40;;
77226;SDS011;66234;47.642;19.144;2024-02-14T02:13:08;7.33;;;4.20;;
77226;SDS011;66234;47.642;19.144;2024-02-14T02:16:11;6.03;;;3.95;;
77226;SDS011;66234;47.642;19.144;2024-02-14T02:19:14;8.18;;;4.35;;
77226;SDS011;66234;47.642;19.144;2024-02-14T02:22:18;7.07;;;4.47;;
77226;SDS011;66234;47.642;19.144;2024-02-14T02:25:20;9.05;;;4.47;;
77226;SDS011;66234;47.642;19.144;2024-02-14T02:28:27;6.72;;;4.18;;
77226;SDS011;66234;47.642;19.144;2024-02-14T02:31:29;8.02;;;4.80;;
77226;SDS011;66234;47.642;19.144;2024-02-14T02:34:32;7.65;;;4.28;;
77226;SDS011;66234;47.642;19.144;2024-02-14T02:37:35;8.40;;;4.85;;
77226;SDS011;66234;47.642;19.144;2024-02-14T02:40:38;7.78;;;4.82;;
77226;SDS011;66234;47.642;19.144;2024-02-14T02:43:40;7.07;;;4.20;;
77226;SDS011;66234;47.642;19.144;2024-02-14T02:46:43;9.13;;;4.72;;
77226;SDS011;66234;47.642;19.144;2024-02-14T02:49:48;7.57;;;4.78;;
77226;SDS011;66234;47.642;19.144;2024-02-14T02:52:50;6.50;;;4.80;;
77226;SDS011;66234;47.642;19.144;2024-02-14T02:55:53;6.70;;;3.85;;
77226;SDS011;66234;47.642;19.144;2024-02-14T02:58:56;9.95;;;4.15;;
77226;SDS011;66234;47.642;19.144;2024-02-14T03:01:59;8.43;;;4.63;;
77226;SDS011;66234;47.642;19.144;2024-02-14T03:05:02;8.50;;;5.45;;
77226;SDS011;66234;47.642;19.144;2024-02-14T03:08:08;11.43;;;5.72;;
77226;SDS011;66234;47.642;19.144;2024-02-14T03:11:12;7.22;;;5.07;;
77226;SDS011;66234;47.642;19.144;2024-02-14T03:14:14;7.50;;;4.70;;
77226;SDS011;66234;47.642;19.144;2024-02-14T03:17:17;8.02;;;5.10;;
77226;SDS011;66234;47.642;19.144;2024-02-14T03:20:19;8.00;;;5.25;;
77226;SDS011;66234;47.642;19.144;2024-02-14T03:23:22;6.57;;;4.93;;
77226;SDS011;66234;47.642;19.144;2024-02-14T03:26:25;11.30;;;5.00;;
77226;SDS011;66234;47.642;19.144;2024-02-14T03:29:29;6.60;;;4.70;;
77226;SDS011;66234;47.642;19.144;2024-02-14T03:32:31;7.25;;;5.63;;
77226;SDS011;66234;47.642;19.144;2024-02-14T03:35:35;9.25;;;5.10;;
77226;SDS011;66234;47.642;19.144;2024-02-14T03:38:37;8.18;;;5.00;;
77226;SDS011;66234;47.642;19.144;2024-02-14T03:41:42;6.68;;;5.63;;
77226;SDS011;66234;47.642;19.144;2024-02-14T03:44:45;8.93;;;5.63;;
77226;SDS011;66234;47.642;19.144;2024-02-14T03:47:48;7.10;;;5.38;;
77226;SDS011;66234;47.642;19.144;2024-02-14T03:50:51;10.15;;;5.63;;
77226;SDS011;66234;47.642;19.144;2024-02-14T03:53:54;8.10;;;5.20;;
77226;SDS011;66234;47.642;19.144;2024-02-14T03:56:56;13.75;;;6.25;;
77226;SDS011;66234;47.642;19.144;2024-02-14T03:59:59;9.05;;;5.90;;
77226;SDS011;66234;47.642;19.144;2024-02-14T04:03:13;8.18;;;5.18;;
77226;SDS011;66234;47.642;19.144;2024-02-14T04:06:16;10.07;;;5.75;;
77226;SDS011;66234;47.642;19.144;2024-02-14T04:09:20;11.05;;;5.50;;
77226;SDS011;66234;47.642;19.144;2024-02-14T04:12:23;10.13;;;6.22;;
77226;SDS011;66234;47.642;19.144;2024-02-14T04:15:25;9.27;;;5.77;;
77226;SDS011;66234;47.642;19.144;2024-02-14T04:18:28;8.18;;;5.53;;
77226;SDS011;66234;47.642;19.144;2024-02-14T04:21:31;9.38;;;5.60;;
77226;SDS011;66234;47.642;19.144;2024-02-14T04:24:35;8.57;;;6.03;;
77226;SDS011;66234;47.642;19.144;2024-02-14T04:27:38;9.63;;;5.40;;
77226;SDS011;66234;47.642;19.144;2024-02-14T04:30:40;10.70;;;5.97;;
77226;SDS011;66234;47.642;19.144;2024-02-14T04:33:44;7.90;;;5.75;;
77226;SDS011;66234;47.642;19.144;2024-02-14T04:36:49;8.30;;;5.18;;
77226;SDS011;66234;47.642;19.144;2024-02-14T04:39:51;7.95;;;5.25;;
77226;SDS011;66234;47.642;19.144;2024-02-14T04:42:54;8.93;;;5.68;;
77226;SDS011;66234;47.642;19.144;2024-02-14T04:45:56;9.57;;;5.43;;
77226;SDS011;66234;47.642;19.144;2024-02-14T04:48:59;11.48;;;6.47;;
77226;SDS011;66234;47.642;19.144;2024-02-14T04:52:03;13.25;;;6.22;;
77226;SDS011;66234;47.642;19.144;2024-02-14T04:55:06;9.10;;;5.97;;
77226;SDS011;66234;47.642;19.144;2024-02-14T04:58:09;12.30;;;6.40;;
77226;SDS011;66234;47.642;19.144;2024-02-14T05:01:12;15.07;;;7.60;;
77226;SDS011;66234;47.642;19.144;2024-02-14T05:04:15;12.35;;;6.65;;
77226;SDS011;66234;47.642;19.144;2024-02-14T05:07:19;8.57;;;5.78;;
77226;SDS011;66234;47.642;19.144;2024-02-14T05:10:21;13.48;;;6.97;;
77226;SDS011;66234;47.642;19.144;2024-02-14T05:13:24;15.25;;;8.05;;
77226;SDS011;66234;47.642;19.144;2024-02-14T05:16:26;21.77;;;8.17;;
77226;SDS011;66234;47.642;19.144;2024-02-14T05:19:30;15.77;;;8.52;;
77226;SDS011;66234;47.642;19.144;2024-02-14T05:22:32;13.77;;;7.45;;
77226;SDS011;66234;47.642;19.144;2024-02-14T05:25:35;13.90;;;8.20;;
77226;SDS011;66234;47.642;19.144;2024-02-14T05:28:37;16.60;;;8.98;;
77226;SDS011;66234;47.642;19.144;2024-02-14T05:31:43;16.60;;;9.55;;
77226;SDS011;66234;47.642;19.144;2024-02-14T05:34:47;16.10;;;10.00;;
77226;SDS011;66234;47.642;19.144;2024-02-14T05:37:50;17.15;;;9.82;;
77226;SDS011;66234;47.642;19.144;2024-02-14T05:40:53;21.30;;;11.82;;
77226;SDS011;66234;47.642;19.144;2024-02-14T05:43:56;25.13;;;11.73;;
77226;SDS011;66234;47.642;19.144;2024-02-14T05:46:58;28.73;;;12.20;;
77226;SDS011;66234;47.642;19.144;2024-02-14T05:50:01;23.40;;;12.05;;
77226;SDS011;66234;47.642;19.144;2024-02-14T05:53:04;24.15;;;11.95;;
77226;SDS011;66234;47.642;19.144;2024-02-14T05:56:06;20.53;;;12.53;;
77226;SDS011;66234;47.642;19.144;2024-02-14T05:59:09;27.85;;;12.65;;
77226;SDS011;66234;47.642;19.144;2024-02-14T06:02:12;20.27;;;11.80;;
77226;SDS011;66234;47.642;19.144;2024-02-14T06:05:15;21.55;;;12.02;;
77226;SDS011;66234;47.642;19.144;2024-02-14T06:08:18;26.50;;;11.95;;
77226;SDS011;66234;47.642;19.144;2024-02-14T06:11:20;19.60;;;11.57;;
77226;SDS011;66234;47.642;19.144;2024-02-14T06:14:23;22.85;;;11.70;;
77226;SDS011;66234;47.642;19.144;2024-02-14T06:17:26;22.37;;;11.33;;
77226;SDS011;66234;47.642;19.144;2024-02-14T06:20:28;23.55;;;12.30;;
77226;SDS011;66234;47.642;19.144;2024-02-14T06:23:31;27.00;;;12.15;;
77226;SDS011;66234;47.642;19.144;2024-02-14T06:26:34;30.00;;;13.77;;
77226;SDS011;66234;47.642;19.144;2024-02-14T06:29:37;25.30;;;12.00;;
77226;SDS011;66234;47.642;19.144;2024-02-14T06:32:39;28.10;;;12.65;;
77226;SDS011;66234;47.642;19.144;2024-02-14T06:35:44;28.17;;;13.20;;
77226;SDS011;66234;47.642;19.144;2024-02-14T06:38:48;26.42;;;14.27;;
77226;SDS011;66234;47.642;19.144;2024-02-14T06:41:56;26.80;;;14.48;;
77226;SDS011;66234;47.642;19.144;2024-02-14T06:44:59;29.85;;;13.63;;
77226;SDS011;66234;47.642;19.144;2024-02-14T06:48:02;24.57;;;13.00;;
77226;SDS011;66234;47.642;19.144;2024-02-14T06:51:07;25.50;;;13.75;;
77226;SDS011;66234;47.642;19.144;2024-02-14T06:54:13;31.50;;;13.68;;
77226;SDS011;66234;47.642;19.144;2024-02-14T06:57:17;32.43;;;13.93;;
77226;SDS011;66234;47.642;19.144;2024-02-14T07:00:21;30.10;;;12.95;;
77226;SDS011;66234;47.642;19.144;2024-02-14T07:03:24;23.33;;;11.90;;
77226;SDS011;66234;47.642;19.144;2024-02-14T07:06:29;26.33;;;11.65;;
77226;SDS011;66234;47.642;19.144;2024-02-14T07:09:35;25.20;;;11.83;;
77226;SDS011;66234;47.642;19.144;2024-02-14T07:12:46;24.30;;;11.85;;
77226;SDS011;66234;47.642;19.144;2024-02-14T07:15:52;19.98;;;10.93;;
77226;SDS011;66234;47.642;19.144;2024-02-14T07:19:00;18.75;;;9.82;;
77226;SDS011;66234;47.642;19.144;2024-02-14T07:22:17;18.95;;;10.52;;
77226;SDS011;66234;47.642;19.144;2024-02-14T07:25:26;19.23;;;10.10;;
77226;SDS011;66234;47.642;19.144;2024-02-14T07:28:35;17.58;;;9.95;;
77226;SDS011;66234;47.642;19.144;2024-02-14T07:31:42;19.90;;;9.97;;
77226;SDS011;66234;47.642;19.144;2024-02-14T07:34:51;17.30;;;8.80;;
77226;SDS011;66234;47.642;19.144;2024-02-14T07:37:57;16.42;;;8.95;;
77226;SDS011;66234;47.642;19.144;2024-02-14T07:41:01;20.13;;;9.15;;
77226;SDS011;66234;47.642;19.144;2024-02-14T07:44:06;16.57;;;9.10;;
77226;SDS011;66234;47.642;19.144;2024-02-14T07:47:10;19.08;;;8.55;;
77226;SDS011;66234;47.642;19.144;2024-02-14T07:50:13;19.15;;;8.45;;
77226;SDS011;66234;47.642;19.144;2024-02-14T07:53:16;15.33;;;8.43;;
77226;SDS011;66234;47.642;19.144;2024-02-14T07:56:19;18.60;;;8.97;;
77226;SDS011;66234;47.642;19.144;2024-02-14T07:59:23;19.20;;;8.95;;
77226;SDS011;66234;47.642;19.144;2024-02-14T08:02:26;17.48;;;8.73;;
77226;SDS011;66234;47.642;19.144;2024-02-14T08:05:30;18.20;;;9.40;;
77226;SDS011;66234;47.642;19.144;2024-02-14T08:08:32;15.53;;;8.33;;
77226;SDS011;66234;47.642;19.144;2024-02-14T08:11:36;17.15;;;8.57;;
77226;SDS011;66234;47.642;19.144;2024-02-14T08:14:39;17.42;;;8.38;;
77226;SDS011;66234;47.642;19.144;2024-02-14T08:17:42;16.35;;;8.13;;
77226;SDS011;66234;47.642;19.144;2024-02-14T08:20:48;18.20;;;9.90;;
77226;SDS011;66234;47.642;19.144;2024-02-14T08:23:58;23.45;;;9.98;;
77226;SDS011;66234;47.642;19.144;2024-02-14T08:28:01;18.20;;;9.32;;
77226;SDS011;66234;47.642;19.144;2024-02-14T08:31:11;15.05;;;8.43;;
77226;SDS011;66234;47.642;19.144;2024-02-14T08:34:15;18.43;;;8.50;;
77226;SDS011;66234;47.642;19.144;2024-02-14T08:37:20;18.02;;;7.35;;
77226;SDS011;66234;47.642;19.144;2024-02-14T08:40:23;13.15;;;7.93;;
77226;SDS011;66234;47.642;19.144;2024-02-14T08:43:25;14.65;;;6.78;;
77226;SDS011;66234;47.642;19.144;2024-02-14T08:46:28;13.02;;;8.25;;
77226;SDS011;66234;47.642;19.144;2024-02-14T08:49:32;19.63;;;9.17;;
77226;SDS011;66234;47.642;19.144;2024-02-14T08:52:36;18.48;;;8.73;;
77226;SDS011;66234;47.642;19.144;2024-02-14T08:55:40;14.98;;;7.53;;
77226;SDS011;66234;47.642;19.144;2024-02-14T08:58:43;15.90;;;7.80;;
77226;SDS011;66234;47.642;19.144;2024-02-14T09:01:47;13.13;;;6.93;;
77226;SDS011;66234;47.642;19.144;2024-02-14T09:04:52;12.87;;;7.07;;
77226;SDS011;66234;47.642;19.144;2024-02-14T09:07:59;15.43;;;7.97;;
77226;SDS011;66234;47.642;19.144;2024-02-14T09:11:12;13.90;;;8.07;;
77226;SDS011;66234;47.642;19.144;2024-02-14T09:14:18;12.75;;;7.22;;
77226;SDS011;66234;47.642;19.144;2024-02-14T09:17:21;11.97;;;5.60;;
77226;SDS011;66234;47.642;19.144;2024-02-14T09:20:24;12.13;;;6.67;;
77226;SDS011;66234;47.642;19.144;2024-02-14T09:23:28;11.90;;;6.03;;
77226;SDS011;66234;47.642;19.144;2024-02-14T09:26:31;6.45;;;3.70;;
77226;SDS011;66234;47.642;19.144;2024-02-14T09:29:34;8.93;;;4.18;;
77226;SDS011;66234;47.642;19.144;2024-02-14T09:32:39;8.33;;;4.00;;
77226;SDS011;66234;47.642;19.144;2024-02-14T09:35:42;4.93;;;1.67;;
77226;SDS011;66234;47.642;19.144;2024-02-14T09:38:51;5.03;;;2.17;;
77226;SDS011;66234;47.642;19.144;2024-02-14T09:41:58;10.57;;;3.38;;
77226;SDS011;66234;47.642;19.144;2024-02-14T09:45:04;5.35;;;2.60;;
77226;SDS011;66234;47.642;19.144;2024-02-14T09:48:08;3.63;;;1.87;;
77226;SDS011;66234;47.642;19.144;2024-02-14T09:51:13;4.23;;;1.50;;
77226;SDS011;66234;47.642;19.144;2024-02-14T09:54:16;3.85;;;1.85;;
77226;SDS011;66234;47.642;19.144;2024-02-14T09:57:20;5.85;;;1.73;;
77226;SDS011;66234;47.642;19.144;2024-02-14T10:00:23;4.53;;;2.00;;
77226;SDS011;66234;47.642;19.144;2024-02-14T10:03:26;4.50;;;2.17;;
77226;SDS011;66234;47.642;19.144;2024-02-14T10:06:32;3.20;;;1.70;;
77226;SDS011;66234;47.642;19.144;2024-02-14T10:09:40;3.97;;;2.33;;
77226;SDS011;66234;47.642;19.144;2024-02-14T10:12:46;4.60;;;2.15;;
77226;SDS011;66234;47.642;19.144;2024-02-14T10:15:49;4.25;;;1.77;;
77226;SDS011;66234;47.642;19.144;2024-02-14T10:18:52;5.30;;;1.70;;
77226;SDS011;66234;47.642;19.144;2024-02-14T10:21:55;3.97;;;1.70;;
77226;SDS011;66234;47.642;19.144;2024-02-14T10:25:00;4.20;;;2.30;;
77226;SDS011;66234;47.642;19.144;2024-02-14T10:28:04;3.50;;;2.15;;
77226;SDS011;66234;47.642;19.144;2024-02-14T10:31:11;4.82;;;2.53;;
77226;SDS011;66234;47.642;19.144;2024-02-14T10:34:15;4.30;;;1.90;;
77226;SDS011;66234;47.642;19.144;2024-02-14T10:37:19;3.47;;;1.93;;
77226;SDS011;66234;47.642;19.144;2024-02-14T10:40:23;3.22;;;1.85;;
77226;SDS011;66234;47.642;19.144;2024-02-14T10:43:30;4.85;;;1.88;;
77226;SDS011;66234;47.642;19.144;2024-02-14T10:46:34;4.88;;;2.30;;
77226;SDS011;66234;47.642;19.144;2024-02-14T10:49:39;5.40;;;2.10;;
77226;SDS011;66234;47.642;19.144;2024-02-14T10:52:48;5.70;;;2.53;;
77226;SDS011;66234;47.642;19.144;2024-02-14T10:55:51;7.70;;;2.67;;
77226;SDS011;66234;47.642;19.144;2024-02-14T10:58:58;7.43;;;2.90;;
77226;SDS011;66234;47.642;19.144;2024-02-14T11:02:03;5.57;;;2.78;;
77226;SDS011;66234;47.642;19.144;2024-02-14T11:05:10;6.05;;;3.40;;
77226;SDS011;66234;47.642;19.144;2024-02-14T11:08:19;5.37;;;2.53;;
77226;SDS011;66234;47.642;19.144;2024-02-14T11:11:24;3.67;;;2.27;;
77226;SDS011;66234;47.642;19.144;2024-02-14T11:14:31;5.22;;;2.95;;
77226;SDS011;66234;47.642;19.144;2024-02-14T11:17:40;4.05;;;2.20;;
77226;SDS011;66234;47.642;19.144;2024-02-14T11:20:43;3.85;;;2.28;;
77226;SDS011;66234;47.642;19.144;2024-02-14T11:23:54;7.80;;;2.50;;
77226;SDS011;66234;47.642;19.144;2024-02-14T11:26:57;3.33;;;1.67;;
77226;SDS011;66234;47.642;19.144;2024-02-14T11:30:00;3.80;;;1.58;;
77226;SDS011;66234;47.642;19.144;2024-02-14T11:33:16;2.30;;;0.73;;
77226;SDS011;66234;47.642;19.144;2024-02-14T11:36:23;3.92;;;1.52;;
77226;SDS011;66234;47.642;19.144;2024-02-14T11:39:26;3.40;;;1.60;;
77226;SDS011;66234;47.642;19.144;2024-02-14T11:42:29;6.17;;;1.43;;
77226;SDS011;66234;47.642;19.144;2024-02-14T11:45:33;1.98;;;1.30;;
77226;SDS011;66234;47.642;19.144;2024-02-14T11:48:35;2.92;;;1.40;;
77226;SDS011;66234;47.642;19.144;2024-02-14T11:51:44;2.17;;;1.13;;
77226;SDS011;66234;47.642;19.144;2024-02-14T11:54:47;3.35;;;1.60;;
77226;SDS011;66234;47.642;19.144;2024-02-14T11:57:51;3.23;;;1.13;;
77226;SDS011;66234;47.642;19.144;2024-02-14T12:00:54;1.77;;;1.00;;
77226;SDS011;66234;47.642;19.144;2024-02-14T12:04:00;5.32;;;1.35;;
77226;SDS011;66234;47.642;19.144;2024-02-14T12:07:04;4.60;;;0.55;;
77226;SDS011;66234;47.642;19.144;2024-02-14T12:10:08;3.90;;;1.25;;
77226;SDS011;66234;47.642;19.144;2024-02-14T12:13:12;5.03;;;1.00;;
77226;SDS011;66234;47.642;19.144;2024-02-14T12:16:19;2.95;;;1.20;;
77226;SDS011;66234;47.642;19.144;2024-02-14T12:19:23;2.33;;;0.70;;
77226;SDS011;66234;47.642;19.144;2024-02-14T12:22:26;1.70;;;0.63;;
77226;SDS011;66234;47.642;19.144;2024-02-14T12:25:29;2.65;;;0.77;;
77226;SDS011;66234;47.642;19.144;2024-02-14T12:28:32;1.97;;;0.70;;
77226;SDS011;66234;47.642;19.144;2024-02-14T12:31:37;3.92;;;1.40;;
77226;SDS011;66234;47.642;19.144;2024-02-14T12:34:39;1.08;;;0.57;;
77226;SDS011;66234;47.642;19.144;2024-02-14T12:37:42;2.22;;;1.23;;
77226;SDS011;66234;47.642;19.144;2024-02-14T12:40:45;3.38;;;1.38;;
77226;SDS011;66234;47.642;19.144;2024-02-14T12:43:49;4.57;;;1.40;;
77226;SDS011;66234;47.642;19.144;2024-02-14T12:46:52;3.10;;;1.20;;
77226;SDS011;66234;47.642;19.144;2024-02-14T12:49:55;2.38;;;1.00;;
77226;SDS011;66234;47.642;19.144;2024-02-14T12:52:58;1.20;;;0.57;;
77226;SDS011;66234;47.642;19.144;2024-02-14T12:56:02;2.75;;;1.25;;
77226;SDS011;66234;47.642;19.144;2024-02-14T12:59:06;4.80;;;2.00;;
77226;SDS011;66234;47.642;19.144;2024-02-14T13:02:09;3.42;;;1.50;;
77226;SDS011;66234;47.642;19.144;2024-02-14T13:05:13;0.68;;;0.50;;
77226;SDS011;66234;47.642;19.144;2024-02-14T13:08:20;2.72;;;1.60;;
77226;SDS011;66234;47.642;19.144;2024-02-14T13:11:23;4.22;;;1.60;;
77226;SDS011;66234;47.642;19.144;2024-02-14T13:14:28;1.67;;;1.17;;
77226;SDS011;66234;47.642;19.144;2024-02-14T13:17:34;3.72;;;1.23;;
77226;SDS011;66234;47.642;19.144;2024-02-14T13:20:37;3.45;;;1.40;;
77226;SDS011;66234;47.642;19.144;2024-02-14T13:23:41;1.42;;;0.77;;
77226;SDS011;66234;47.642;19.144;2024-02-14T13:26:44;2.40;;;1.50;;
77226;SDS011;66234;47.642;19.144;2024-02-14T13:29:47;3.17;;;1.97;;
77226;SDS011;66234;47.642;19.144;2024-02-14T13:32:50;3.42;;;1.60;;
77226;SDS011;66234;47.642;19.144;2024-02-14T13:35:52;7.38;;;2.15;;
77226;SDS011;66234;47.642;19.144;2024-02-14T13:38:55;4.68;;;1.85;;
77226;SDS011;66234;47.642;19.144;2024-02-14T13:41:58;4.00;;;1.73;;
77226;SDS011;66234;47.642;19.144;2024-02-14T13:45:03;4.03;;;2.17;;
77226;SDS011;66234;47.642;19.144;2024-02-14T13:48:13;3.90;;;1.92;;
77226;SDS011;66234;47.642;19.144;2024-02-14T13:51:17;4.57;;;2.40;;
77226;SDS011;66234;47.642;19.144;2024-02-14T13:54:20;4.38;;;1.90;;
77226;SDS011;66234;47.642;19.144;2024-02-14T13:57:23;3.00;;;1.90;;
77226;SDS011;66234;47.642;19.144;2024-02-14T14:00:26;3.67;;;2.20;;
77226;SDS011;66234;47.642;19.144;2024-02-14T14:03:30;7.10;;;2.92;;
77226;SDS011;66234;47.642;19.144;2024-02-14T14:06:35;3.58;;;1.73;;
77226;SDS011;66234;47.642;19.144;2024-02-14T14:09:37;4.53;;;2.40;;
77226;SDS011;66234;47.642;19.144;2024-02-14T14:12:41;6.10;;;1.58;;
77226;SDS011;66234;47.642;19.144;2024-02-14T14:15:44;4.87;;;2.40;;
77226;SDS011;66234;47.642;19.144;2024-02-14T14:18:48;6.28;;;2.78;;
77226;SDS011;66234;47.642;19.144;2024-02-14T14:21:55;4.13;;;2.20;;
77226;SDS011;66234;47.642;19.144;2024-02-14T14:24:58;6.15;;;2.38;;
77226;SDS011;66234;47.642;19.144;2024-02-14T14:28:01;5.10;;;2.42;;
77226;SDS011;66234;47.642;19.144;2024-02-14T14:31:08;6.20;;;2.80;;
77226;SDS011;66234;47.642;19.144;2024-02-14T14:34:14;3.92;;;2.22;;
77226;SDS011;66234;47.642;19.144;2024-02-14T14:37:17;4.95;;;3.30;;
77226;SDS011;66234;47.642;19.144;2024-02-14T14:40:19;7.78;;;2.50;;
77226;SDS011;66234;47.642;19.144;2024-02-14T14:43:23;3.20;;;2.30;;
77226;SDS011;66234;47.642;19.144;2024-02-14T14:46:26;4.07;;;2.03;;
77226;SDS011;66234;47.642;19.144;2024-02-14T14:49:29;4.03;;;2.20;;
77226;SDS011;66234;47.642;19.144;2024-02-14T14:52:33;4.88;;;2.60;;
77226;SDS011;66234;47.642;19.144;2024-02-14T14:55:49;5.90;;;2.92;;
77226;SDS011;66234;47.642;19.144;2024-02-14T14:58:58;4.93;;;2.42;;
77226;SDS011;66234;47.642;19.144;2024-02-14T15:02:02;5.73;;;2.67;;
77226;SDS011;66234;47.642;19.144;2024-02-14T15:05:05;5.32;;;2.58;;
77226;SDS011;66234;47.642;19.144;2024-02-14T15:08:07;4.90;;;2.50;;
77226;SDS011;66234;47.642;19.144;2024-02-14T15:11:10;3.72;;;2.30;;
77226;SDS011;66234;47.642;19.144;2024-02-14T15:14:17;3.45;;;2.08;;
77226;SDS011;66234;47.642;19.144;2024-02-14T15:17:20;3.37;;;2.13;;
77226;SDS011;66234;47.642;19.144;2024-02-14T15:20:23;4.55;;;2.42;;
77226;SDS011;66234;47.642;19.144;2024-02-14T15:23:26;4.05;;;2.25;;
77226;SDS011;66234;47.642;19.144;2024-02-14T15:26:28;5.13;;;2.42;;
77226;SDS011;66234;47.642;19.144;2024-02-14T15:29:32;5.45;;;2.88;;
77226;SDS011;66234;47.642;19.144;2024-02-14T15:32:54;4.30;;;2.70;;
77226;SDS011;66234;47.642;19.144;2024-02-14T15:36:17;8.70;;;3.38;;
77226;SDS011;66234;47.642;19.144;2024-02-14T15:39:21;4.38;;;2.72;;
77226;SDS011;66234;47.642;19.144;2024-02-14T15:42:23;10.15;;;3.55;;
77226;SDS011;66234;47.642;19.144;2024-02-14T15:45:26;9.55;;;3.90;;
77226;SDS011;66234;47.642;19.144;2024-02-14T15:48:29;5.83;;;3.00;;
77226;SDS011;66234;47.642;19.144;2024-02-14T15:51:32;6.22;;;3.28;;
77226;SDS011;66234;47.642;19.144;2024-02-14T15:54:34;7.95;;;4.22;;
77226;SDS011;66234;47.642;19.144;2024-02-14T15:57:39;8.10;;;3.85;;
77226;SDS011;66234;47.642;19.144;2024-02-14T16:00:42;7.72;;;3.63;;
77226;SDS011;66234;47.642;19.144;2024-02-14T16:03:45;6.60;;;3.40;;
77226;SDS011;66234;47.642;19.144;2024-02-14T16:06:49;5.68;;;3.53;;
77226;SDS011;66234;47.642;19.144;2024-02-14T16:09:52;8.52;;;3.63;;
77226;SDS011;66234;47.642;19.144;2024-02-14T16:12:54;8.93;;;3.50;;
77226;SDS011;66234;47.642;19.144;2024-02-14T16:15:57;8.13;;;3.67;;
77226;SDS011;66234;47.642;19.144;2024-02-14T16:19:00;6.77;;;3.00;;
77226;SDS011;66234;47.642;19.144;2024-02-14T16:22:02;7.93;;;3.60;;
77226;SDS011;66234;47.642;19.144;2024-02-14T16:25:17;8.60;;;4.18;;
77226;SDS011;66234;47.642;19.144;2024-02-14T16:28:22;12.13;;;4.40;;
77226;SDS011;66234;47.642;19.144;2024-02-14T16:31:24;13.45;;;5.13;;
77226;SDS011;66234;47.642;19.144;2024-02-14T16:34:27;11.73;;;4.60;;
77226;SDS011;66234;47.642;19.144;2024-02-14T16:37:31;8.63;;;3.97;;
77226;SDS011;66234;47.642;19.144;2024-02-14T16:40:34;11.30;;;4.32;;
77226;SDS011;66234;47.642;19.144;2024-02-14T16:43:37;9.18;;;4.80;;
77226;SDS011;66234;47.642;19.144;2024-02-14T16:46:40;7.75;;;4.22;;
77226;SDS011;66234;47.642;19.144;2024-02-14T16:49:43;9.03;;;4.50;;
77226;SDS011;66234;47.642;19.144;2024-02-14T16:52:46;11.65;;;5.20;;
77226;SDS011;66234;47.642;19.144;2024-02-14T16:55:49;10.40;;;5.80;;
77226;SDS011;66234;47.642;19.144;2024-02-14T16:58:51;11.93;;;5.65;;
77226;SDS011;66234;47.642;19.144;2024-02-14T17:01:54;13.63;;;6.93;;
77226;SDS011;66234;47.642;19.144;2024-02-14T17:04:57;10.73;;;6.03;;
77226;SDS011;66234;47.642;19.144;2024-02-14T17:08:00;11.75;;;6.25;;
77226;SDS011;66234;47.642;19.144;2024-02-14T17:11:02;14.70;;;6.70;;
77226;SDS011;66234;47.642;19.144;2024-02-14T17:14:05;11.07;;;5.30;;
77226;SDS011;66234;47.642;19.144;2024-02-14T17:17:11;11.20;;;6.00;;
77226;SDS011;66234;47.642;19.144;2024-02-14T17:20:13;14.87;;;6.67;;
77226;SDS011;66234;47.642;19.144;2024-02-14T17:23:16;17.45;;;6.47;;
77226;SDS011;66234;47.642;19.144;2024-02-14T17:26:19;13.00;;;5.88;;
77226;SDS011;66234;47.642;19.144;2024-02-14T17:29:23;11.85;;;5.38;;
77226;SDS011;66234;47.642;19.144;2024-02-14T17:32:26;11.10;;;6.18;;
77226;SDS011;66234;47.642;19.144;2024-02-14T17:35:40;14.67;;;6.27;;
77226;SDS011;66234;47.642;19.144;2024-02-14T17:38:43;9.75;;;5.32;;
77226;SDS011;66234;47.642;19.144;2024-02-14T17:41:46;11.00;;;6.38;;
77226;SDS011;66234;47.642;19.144;2024-02-14T17:44:49;10.95;;;6.10;;
77226;SDS011;66234;47.642;19.144;2024-02-14T17:47:52;12.73;;;6.47;;
77226;SDS011;66234;47.642;19.144;2024-02-14T17:50:55;14.40;;;5.17;;
77226;SDS011;66234;47.642;19.144;2024-02-14T17:53:57;12.88;;;5.25;;
77226;SDS011;66234;47.642;19.144;2024-02-14T17:57:00;8.10;;;5.00;;
77226;SDS011;66234;47.642;19.144;2024-02-14T18:00:04;7.53;;;4.32;;
77226;SDS011;66234;47.642;19.144;2024-02-14T18:03:14;9.93;;;5.05;;
77226;SDS011;66234;47.642;19.144;2024-02-14T18:06:17;10.23;;;4.83;;